createdAt,value
2019-05-29T04:08:51.365Z,11.37
2019-05-29T04:13:52.454Z,11.44
2019-05-29T04:18:53.946Z,11.40
2019-05-29T04:23:56.226Z,11.50
2019-05-29T04:28:57.208Z,11.46
2019-05-29T04:33:58.084Z,11.42
2019-05-29T04:38:58.956Z,11.34
2019-05-29T04:43:59.856Z,11.44
2019-05-29T04:49:00.746Z,11.28
2019-05-29T04:54:02.146Z,11.50
2019-05-29T04:59:03.826Z,11.43
2019-05-29T05:04:04.725Z,11.49
2019-05-29T05:09:06.396Z,11.52
2019-05-29T05:14:07.398Z,11.45
2019-05-29T05:19:08.267Z,11.46
2019-05-29T05:24:09.150Z,11.52
2019-05-29T05:29:10.028Z,11.66
2019-05-29T05:34:10.903Z,11.63
2019-05-29T05:39:11.784Z,11.57
2019-05-29T05:44:12.660Z,11.56
2019-05-29T05:49:13.547Z,11.60
2019-05-29T05:54:14.412Z,11.53
2019-05-29T05:59:15.280Z,11.58
2019-05-29T06:04:16.195Z,11.74
2019-05-29T06:09:17.048Z,11.76
2019-05-29T06:14:17.924Z,11.76
2019-05-29T06:19:19.112Z,11.61
2019-05-29T06:24:20.094Z,11.73
2019-05-29T06:29:20.969Z,11.61
2019-05-29T06:34:21.849Z,11.77
2019-05-29T06:39:22.725Z,11.80
2019-05-29T06:44:23.601Z,11.70
2019-05-29T06:49:24.481Z,11.76
2019-05-29T06:54:25.361Z,11.76
2019-05-29T06:59:26.259Z,11.68
2019-05-29T07:04:27.133Z,11.84
2019-05-29T07:09:28.008Z,11.98
2019-05-29T07:14:28.870Z,12.07
2019-05-29T07:19:47.422Z,12.00
2019-05-29T07:24:32.540Z,12.12
2019-05-29T07:29:33.413Z,12.10
2019-05-29T07:34:49.728Z,12.19
2019-05-29T07:39:37.383Z,12.15
2019-05-29T07:44:39.906Z,12.13
2019-05-29T07:49:44.705Z,12.35
2019-05-29T07:54:43.963Z,12.33
2019-05-29T07:59:45.000Z,12.38
2019-05-29T08:04:47.091Z,12.41
2019-05-29T08:09:48.173Z,12.29
2019-05-29T08:14:50.173Z,12.35
2019-05-29T08:20:05.398Z,12.25
2019-05-29T08:24:54.375Z,12.41
2019-05-29T08:29:55.253Z,12.32
2019-05-29T08:34:56.120Z,12.44
2019-05-29T08:39:56.992Z,12.58
2019-05-29T08:44:57.871Z,12.43
2019-05-29T08:50:16.862Z,12.62
2019-05-29T08:55:01.824Z,12.54
2019-05-29T09:00:06.928Z,12.46
2019-05-29T09:05:08.729Z,12.53
2019-05-29T09:10:11.627Z,12.52
2019-05-29T09:15:12.930Z,12.64
2019-05-29T09:20:29.443Z,12.72
2019-05-29T09:25:17.081Z,12.57
2019-05-29T09:30:19.950Z,12.52
2019-05-29T09:35:21.996Z,12.55
2019-05-29T09:40:24.946Z,12.58
2019-05-29T09:45:26.093Z,12.72
2019-05-29T09:50:27.669Z,12.63
2019-05-29T09:55:28.752Z,12.68
2019-05-29T10:00:29.753Z,12.85
2019-05-29T10:05:31.570Z,13.16
2019-05-29T10:10:32.490Z,13.04
2019-05-29T10:15:33.423Z,13.28
2019-05-29T10:20:34.399Z,13.34
2019-05-29T10:25:35.347Z,13.39
2019-05-29T10:30:36.269Z,13.50
2019-05-29T10:35:37.277Z,13.08
2019-05-29T10:40:38.242Z,13.40
2019-05-29T10:45:39.116Z,13.30
2019-05-29T10:50:39.996Z,13.48
2019-05-29T10:55:40.966Z,13.33
2019-05-29T11:00:41.839Z,13.43
2019-05-29T11:05:42.925Z,13.57
2019-05-29T11:10:43.803Z,13.75
2019-05-29T11:15:44.698Z,13.82
2019-05-29T11:20:45.687Z,13.92
2019-05-29T11:25:47.768Z,13.88
2019-05-29T11:30:48.763Z,13.87
2019-05-29T11:36:02.834Z,13.94
2019-05-29T11:41:21.083Z,13.85
2019-05-29T11:45:55.709Z,13.83
2019-05-29T11:50:56.588Z,14.01
2019-05-29T11:55:57.837Z,13.91
2019-05-29T12:00:59.212Z,13.87
2019-05-29T12:06:03.183Z,13.81
2019-05-29T12:11:03.132Z,13.65
2019-05-29T12:16:04.120Z,13.17
2019-05-29T12:21:05.678Z,13.08
2019-05-29T12:26:21.908Z,13.08
2019-05-29T12:31:11.537Z,13.03
2019-05-29T12:36:12.916Z,12.95
2019-05-29T12:41:13.839Z,12.81
2019-05-29T12:46:15.401Z,12.63
2019-05-29T12:51:16.256Z,12.69
2019-05-29T12:56:18.558Z,12.57
2019-05-29T13:01:19.442Z,12.75
2019-05-29T13:06:21.061Z,12.43
2019-05-29T13:11:24.627Z,12.31
2019-05-29T13:16:25.599Z,12.56
2019-05-29T13:21:26.479Z,12.42
2019-05-29T13:26:27.378Z,12.27
2019-05-29T13:31:28.341Z,12.21
2019-05-29T13:36:29.234Z,12.23
2019-05-29T13:41:30.444Z,12.30
2019-05-29T13:46:31.329Z,12.22
2019-05-29T13:51:32.386Z,12.10
2019-05-29T13:56:34.011Z,12.03
2019-05-29T14:01:34.885Z,11.98
2019-05-29T14:06:41.389Z,12.02
2019-05-29T14:11:42.684Z,11.90
2019-05-29T14:16:43.815Z,11.90
2019-05-29T14:21:45.105Z,11.95
2019-05-29T14:26:46.260Z,11.97
2019-05-29T14:31:48.701Z,11.92
2019-05-29T14:36:49.825Z,12.05
2019-05-29T14:41:51.187Z,12.10
2019-05-29T14:46:53.151Z,12.00
2019-05-29T14:51:54.380Z,12.01
2019-05-29T14:56:55.595Z,12.22
2019-05-29T15:01:56.680Z,12.22
2019-05-29T15:06:58.423Z,12.24
2019-05-29T15:11:59.303Z,12.16
2019-05-29T15:17:00.200Z,12.10
2019-05-29T15:22:01.272Z,12.03
2019-05-29T15:27:03.515Z,12.18
2019-05-29T15:32:04.501Z,12.44
2019-05-29T15:37:08.352Z,12.27
2019-05-29T15:42:08.947Z,12.19
2019-05-29T15:47:10.910Z,12.43
2019-05-29T15:52:13.158Z,12.48
2019-05-29T15:57:15.206Z,12.43
2019-05-29T16:02:17.794Z,12.35
2019-05-29T16:07:19.851Z,12.37
2019-05-29T16:12:20.723Z,12.38
2019-05-29T16:17:21.593Z,12.33
2019-05-29T16:22:22.749Z,12.24
2019-05-29T16:27:30.025Z,12.27
2019-05-29T16:32:27.373Z,12.35
2019-05-29T16:37:28.234Z,12.31
2019-05-29T16:42:29.131Z,12.18
2019-05-29T16:47:30.130Z,12.24
2019-05-29T16:52:31.005Z,12.27
2019-05-29T16:57:31.884Z,12.26
2019-05-29T17:02:32.768Z,12.28
2019-05-29T17:07:33.760Z,12.27
2019-05-29T17:12:34.602Z,12.35
2019-05-29T17:17:35.584Z,12.26
2019-05-29T17:22:36.556Z,12.34
2019-05-29T17:27:37.441Z,12.28
2019-05-29T17:32:38.420Z,12.19
2019-05-29T17:37:39.291Z,12.20
2019-05-29T17:42:40.170Z,12.29
2019-05-29T17:47:41.054Z,12.15
2019-05-29T17:52:41.941Z,11.99
2019-05-29T17:57:42.795Z,12.15
2019-05-29T18:02:51.994Z,12.06
2019-05-29T18:07:46.740Z,12.06
2019-05-29T18:12:47.600Z,12.10
2019-05-29T18:17:48.548Z,12.06
2019-05-29T18:22:49.507Z,12.10
2019-05-29T18:27:50.384Z,12.14
2019-05-29T18:32:51.417Z,12.13
2019-05-29T18:37:52.303Z,12.06
2019-05-29T18:42:53.167Z,11.96
2019-05-29T18:47:54.145Z,12.09
2019-05-29T18:52:55.053Z,11.99
2019-05-29T18:57:55.927Z,11.98
2019-05-29T19:02:56.833Z,11.94
2019-05-29T19:07:57.824Z,11.96
2019-05-29T19:12:58.708Z,12.00
2019-05-29T19:17:59.607Z,11.90
2019-05-29T19:23:00.493Z,11.70
2019-05-29T19:28:01.376Z,11.75
2019-05-29T19:33:02.539Z,11.67
2019-05-29T19:38:03.512Z,11.80
2019-05-29T19:43:04.603Z,11.67
2019-05-29T19:48:05.532Z,11.40
2019-05-29T19:53:06.436Z,11.58
2019-05-29T19:58:07.288Z,11.62
2019-05-29T20:03:08.548Z,11.57
2019-05-29T20:08:09.409Z,11.62
2019-05-29T20:13:10.309Z,11.64
2019-05-29T20:18:11.190Z,11.59
2019-05-29T20:23:12.179Z,11.59
2019-05-29T20:28:13.064Z,11.60
2019-05-29T20:33:13.943Z,11.57
2019-05-29T20:38:14.823Z,11.46
2019-05-29T20:43:15.822Z,11.36
2019-05-29T20:48:16.722Z,11.51
2019-05-29T20:53:17.594Z,11.54
2019-05-29T20:58:24.690Z,11.38
2019-05-29T21:03:21.298Z,11.45
2019-05-29T21:08:22.174Z,11.40
2019-05-29T21:13:23.163Z,11.40
2019-05-29T21:18:24.041Z,11.32
2019-05-29T21:23:25.994Z,11.23
2019-05-29T21:28:39.200Z,11.24
2019-05-29T21:33:29.757Z,11.33
2019-05-29T21:38:30.634Z,11.27
2019-05-29T21:43:32.170Z,11.32
2019-05-29T21:48:33.020Z,11.24
2019-05-29T21:53:33.908Z,11.19
2019-05-29T21:58:34.788Z,11.33
2019-05-29T22:03:35.970Z,11.31
2019-05-29T22:08:38.661Z,11.40
2019-05-29T22:13:40.948Z,11.24
2019-05-29T22:18:42.592Z,11.34
2019-05-29T22:23:43.574Z,11.31
2019-05-29T22:28:44.531Z,11.30
2019-05-29T22:33:45.402Z,11.27
2019-05-29T22:38:46.266Z,11.31
2019-05-29T22:43:47.145Z,11.29
2019-05-29T22:48:48.025Z,11.23
2019-05-29T22:53:48.908Z,11.27
2019-05-29T22:58:49.780Z,11.29
2019-05-29T23:03:51.966Z,11.27
2019-05-29T23:08:54.052Z,11.28
2019-05-29T23:13:56.190Z,11.12
2019-05-29T23:18:58.538Z,11.29
2019-05-29T23:23:59.680Z,11.21
2019-05-29T23:29:01.004Z,11.25
2019-05-29T23:34:03.170Z,11.09
2019-05-29T23:39:04.823Z,11.20
2019-05-29T23:44:05.818Z,11.18
2019-05-29T23:49:06.691Z,11.22
2019-05-29T23:54:07.569Z,11.20
2019-05-29T23:59:08.447Z,11.21
